Terminal Aerodrome Forecast
Issued by NWS Blacksburg, VA

Current Version | Previous Version | Graphics & Text | Print | Product List | Glossary On
Versions: 1 2 3 4 5 6 7 8 9 10 11 12 13 14 15 16 17 18 19 20 21 22 23 24 25 26 27 28 29 30 31 32 33 34 35 36
956
FTUS41 KRNK 272052 AAA
TAFBLF
TAF AMD
KBLF 272052Z 2721/2818 18005KT 5SM -TSRA OVC035CB
      TEMPO 2721/2722 15012G22KT 2SM TSRA OVC025CB
     FM280400 VRB04KT P6SM SCT030
     FM281400 12005KT P6SM SCT250=

USA.gov is the U.S. government's official web portal to all federal, state and local government web resources and services.